Aviation Digital Data Service (ADDS)

Output produced by METARs form (1411 UTC 28 January 2015)
found at http://aviationweather.gov/adds/metars/
 
KART 281130Z 2812/2912 VRB03KT P6SM SKC 
     FM282000 25005KT P6SM SKC 
     FM282300 19005KT P6SM SKC 
     FM290100 VRB03KT P6SM SKC AMD NOT SKED